sensor_id;sensor_type;location;lat;lon;timestamp;P1;durP1;ratioP1;P2;durP2;ratioP2
23346;SDS011;36852;45.466;11.066;2022-10-31T00:01:22;25.82;;;12.20;;
23346;SDS011;36852;45.466;11.066;2022-10-31T00:03:48;28.45;;;12.28;;
23346;SDS011;36852;45.466;11.066;2022-10-31T00:06:16;28.15;;;11.68;;
23346;SDS011;36852;45.466;11.066;2022-10-31T00:08:51;25.62;;;12.03;;
23346;SDS011;36852;45.466;11.066;2022-10-31T00:11:21;32.80;;;12.65;;
23346;SDS011;36852;45.466;11.066;2022-10-31T00:13:52;25.35;;;13.00;;
23346;SDS011;36852;45.466;11.066;2022-10-31T00:16:25;27.70;;;12.93;;
23346;SDS011;36852;45.466;11.066;2022-10-31T00:18:58;29.92;;;13.28;;
23346;SDS011;36852;45.466;11.066;2022-10-31T00:21:23;24.10;;;12.68;;
23346;SDS011;36852;45.466;11.066;2022-10-31T00:23:52;28.50;;;13.25;;
23346;SDS011;36852;45.466;11.066;2022-10-31T00:26:20;29.50;;;13.78;;
23346;SDS011;36852;45.466;11.066;2022-10-31T00:28:48;37.50;;;14.58;;
23346;SDS011;36852;45.466;11.066;2022-10-31T00:31:17;32.83;;;13.75;;
23346;SDS011;36852;45.466;11.066;2022-10-31T00:33:45;34.53;;;15.05;;
23346;SDS011;36852;45.466;11.066;2022-10-31T00:36:16;30.20;;;14.13;;
23346;SDS011;36852;45.466;11.066;2022-10-31T00:38:46;33.90;;;15.68;;
23346;SDS011;36852;45.466;11.066;2022-10-31T00:41:16;28.98;;;12.53;;
23346;SDS011;36852;45.466;11.066;2022-10-31T00:43:45;25.15;;;11.68;;
23346;SDS011;36852;45.466;11.066;2022-10-31T00:46:13;26.10;;;11.50;;
23346;SDS011;36852;45.466;11.066;2022-10-31T00:48:41;37.55;;;21.02;;
23346;SDS011;36852;45.466;11.066;2022-10-31T00:51:09;33.30;;;16.60;;
23346;SDS011;36852;45.466;11.066;2022-10-31T00:53:40;38.55;;;19.67;;
23346;SDS011;36852;45.466;11.066;2022-10-31T00:56:08;42.75;;;22.67;;
23346;SDS011;36852;45.466;11.066;2022-10-31T00:58:36;38.28;;;21.93;;
23346;SDS011;36852;45.466;11.066;2022-10-31T01:01:03;46.00;;;24.77;;
23346;SDS011;36852;45.466;11.066;2022-10-31T01:03:34;42.83;;;24.07;;
23346;SDS011;36852;45.466;11.066;2022-10-31T01:06:05;40.65;;;23.67;;
23346;SDS011;36852;45.466;11.066;2022-10-31T01:08:36;39.03;;;24.37;;
23346;SDS011;36852;45.466;11.066;2022-10-31T01:13:45;43.52;;;22.60;;
23346;SDS011;36852;45.466;11.066;2022-10-31T01:16:14;47.45;;;25.68;;
23346;SDS011;36852;45.466;11.066;2022-10-31T01:18:43;41.28;;;24.67;;
23346;SDS011;36852;45.466;11.066;2022-10-31T01:21:17;45.33;;;23.83;;
23346;SDS011;36852;45.466;11.066;2022-10-31T01:23:43;42.95;;;24.35;;
23346;SDS011;36852;45.466;11.066;2022-10-31T01:26:14;37.90;;;20.37;;
23346;SDS011;36852;45.466;11.066;2022-10-31T01:31:21;29.67;;;15.75;;
23346;SDS011;36852;45.466;11.066;2022-10-31T01:33:51;27.80;;;13.40;;
23346;SDS011;36852;45.466;11.066;2022-10-31T01:38:53;25.25;;;12.82;;
23346;SDS011;36852;45.466;11.066;2022-10-31T01:41:29;23.45;;;10.45;;
23346;SDS011;36852;45.466;11.066;2022-10-31T01:43:56;21.93;;;9.78;;
23346;SDS011;36852;45.466;11.066;2022-10-31T01:46:39;20.17;;;10.30;;
23346;SDS011;36852;45.466;11.066;2022-10-31T01:49:13;20.80;;;8.95;;
23346;SDS011;36852;45.466;11.066;2022-10-31T01:51:45;25.52;;;10.72;;
23346;SDS011;36852;45.466;11.066;2022-10-31T01:54:15;23.47;;;9.28;;
23346;SDS011;36852;45.466;11.066;2022-10-31T01:56:51;22.95;;;8.45;;
23346;SDS011;36852;45.466;11.066;2022-10-31T01:59:19;20.05;;;8.83;;
23346;SDS011;36852;45.466;11.066;2022-10-31T02:01:48;23.27;;;9.73;;
23346;SDS011;36852;45.466;11.066;2022-10-31T02:04:18;20.90;;;8.45;;
23346;SDS011;36852;45.466;11.066;2022-10-31T02:06:49;18.07;;;7.78;;
23346;SDS011;36852;45.466;11.066;2022-10-31T02:09:28;16.00;;;7.70;;
23346;SDS011;36852;45.466;11.066;2022-10-31T02:12:02;19.15;;;7.55;;
23346;SDS011;36852;45.466;11.066;2022-10-31T02:14:31;19.90;;;8.73;;
23346;SDS011;36852;45.466;11.066;2022-10-31T02:17:02;17.10;;;7.90;;
23346;SDS011;36852;45.466;11.066;2022-10-31T02:19:34;23.73;;;7.80;;
23346;SDS011;36852;45.466;11.066;2022-10-31T02:32:53;17.73;;;6.33;;
23346;SDS011;36852;45.466;11.066;2022-10-31T02:46:54;42.95;;;21.77;;
23346;SDS011;36852;45.466;11.066;2022-10-31T02:52:24;41.77;;;23.22;;
23346;SDS011;36852;45.466;11.066;2022-10-31T02:54:52;43.38;;;24.02;;
23346;SDS011;36852;45.466;11.066;2022-10-31T02:57:24;44.42;;;25.08;;
23346;SDS011;36852;45.466;11.066;2022-10-31T03:00:02;51.50;;;24.77;;
23346;SDS011;36852;45.466;11.066;2022-10-31T03:05:16;43.45;;;23.52;;
23346;SDS011;36852;45.466;11.066;2022-10-31T03:08:08;39.20;;;21.93;;
23346;SDS011;36852;45.466;11.066;2022-10-31T03:19:02;31.27;;;19.55;;
23346;SDS011;36852;45.466;11.066;2022-10-31T03:21:45;27.50;;;13.58;;
23346;SDS011;36852;45.466;11.066;2022-10-31T03:24:15;25.68;;;12.33;;
23346;SDS011;36852;45.466;11.066;2022-10-31T03:26:45;26.80;;;13.00;;
23346;SDS011;36852;45.466;11.066;2022-10-31T03:29:15;21.70;;;11.95;;
23346;SDS011;36852;45.466;11.066;2022-10-31T03:31:50;28.02;;;12.85;;
23346;SDS011;36852;45.466;11.066;2022-10-31T03:34:17;30.20;;;13.60;;
23346;SDS011;36852;45.466;11.066;2022-10-31T03:36:47;25.12;;;13.68;;
23346;SDS011;36852;45.466;11.066;2022-10-31T03:39:18;24.50;;;12.30;;
23346;SDS011;36852;45.466;11.066;2022-10-31T03:41:51;25.50;;;13.15;;
23346;SDS011;36852;45.466;11.066;2022-10-31T03:44:21;23.27;;;11.75;;
23346;SDS011;36852;45.466;11.066;2022-10-31T03:46:52;25.40;;;11.40;;
23346;SDS011;36852;45.466;11.066;2022-10-31T03:49:20;26.37;;;12.25;;
23346;SDS011;36852;45.466;11.066;2022-10-31T03:52:02;25.00;;;11.50;;
23346;SDS011;36852;45.466;11.066;2022-10-31T03:54:35;24.27;;;11.93;;
23346;SDS011;36852;45.466;11.066;2022-10-31T04:03:06;22.48;;;10.63;;
23346;SDS011;36852;45.466;11.066;2022-10-31T04:05:21;24.18;;;11.70;;
23346;SDS011;36852;45.466;11.066;2022-10-31T04:07:51;20.97;;;10.18;;
23346;SDS011;36852;45.466;11.066;2022-10-31T04:10:22;22.00;;;10.05;;
23346;SDS011;36852;45.466;11.066;2022-10-31T04:12:55;20.50;;;9.93;;
23346;SDS011;36852;45.466;11.066;2022-10-31T04:15:29;22.67;;;10.98;;
23346;SDS011;36852;45.466;11.066;2022-10-31T04:17:59;21.48;;;11.10;;
23346;SDS011;36852;45.466;11.066;2022-10-31T04:20:31;23.75;;;12.03;;
23346;SDS011;36852;45.466;11.066;2022-10-31T04:23:00;21.55;;;10.58;;
23346;SDS011;36852;45.466;11.066;2022-10-31T04:25:30;21.70;;;10.78;;
23346;SDS011;36852;45.466;11.066;2022-10-31T04:27:58;21.80;;;10.40;;
23346;SDS011;36852;45.466;11.066;2022-10-31T04:30:28;21.97;;;10.53;;
23346;SDS011;36852;45.466;11.066;2022-10-31T04:32:56;25.85;;;11.28;;
23346;SDS011;36852;45.466;11.066;2022-10-31T04:35:25;22.62;;;10.13;;
23346;SDS011;36852;45.466;11.066;2022-10-31T04:37:53;16.35;;;9.05;;
23346;SDS011;36852;45.466;11.066;2022-10-31T04:40:21;17.42;;;8.35;;
23346;SDS011;36852;45.466;11.066;2022-10-31T04:43:07;16.60;;;9.18;;
23346;SDS011;36852;45.466;11.066;2022-10-31T04:45:37;23.27;;;9.83;;
23346;SDS011;36852;45.466;11.066;2022-10-31T04:48:05;15.90;;;7.47;;
23346;SDS011;36852;45.466;11.066;2022-10-31T04:50:33;18.02;;;7.37;;
23346;SDS011;36852;45.466;11.066;2022-10-31T04:53:02;17.67;;;7.70;;
23346;SDS011;36852;45.466;11.066;2022-10-31T04:55:31;17.45;;;7.90;;
23346;SDS011;36852;45.466;11.066;2022-10-31T04:58:07;17.85;;;7.55;;
23346;SDS011;36852;45.466;11.066;2022-10-31T05:00:36;15.35;;;7.25;;
23346;SDS011;36852;45.466;11.066;2022-10-31T05:03:04;16.25;;;7.55;;
23346;SDS011;36852;45.466;11.066;2022-10-31T05:05:32;19.92;;;8.05;;
23346;SDS011;36852;45.466;11.066;2022-10-31T05:08:02;15.70;;;6.67;;
23346;SDS011;36852;45.466;11.066;2022-10-31T05:10:30;17.75;;;7.28;;
23346;SDS011;36852;45.466;11.066;2022-10-31T05:12:59;19.30;;;7.67;;
23346;SDS011;36852;45.466;11.066;2022-10-31T05:15:47;20.55;;;7.60;;
23346;SDS011;36852;45.466;11.066;2022-10-31T05:18:26;17.90;;;8.60;;
23346;SDS011;36852;45.466;11.066;2022-10-31T05:21:12;25.27;;;7.72;;
23346;SDS011;36852;45.466;11.066;2022-10-31T05:23:45;18.20;;;7.40;;
23346;SDS011;36852;45.466;11.066;2022-10-31T05:26:16;23.15;;;7.92;;
23346;SDS011;36852;45.466;11.066;2022-10-31T05:28:44;25.17;;;7.17;;
23346;SDS011;36852;45.466;11.066;2022-10-31T05:31:12;18.20;;;8.35;;
23346;SDS011;36852;45.466;11.066;2022-10-31T05:33:40;16.50;;;7.53;;
23346;SDS011;36852;45.466;11.066;2022-10-31T05:36:26;21.93;;;8.80;;
23346;SDS011;36852;45.466;11.066;2022-10-31T05:39:04;23.52;;;7.87;;
23346;SDS011;36852;45.466;11.066;2022-10-31T05:41:35;26.40;;;8.30;;
23346;SDS011;36852;45.466;11.066;2022-10-31T05:44:05;19.15;;;8.25;;
23346;SDS011;36852;45.466;11.066;2022-10-31T05:46:35;24.87;;;9.03;;
23346;SDS011;36852;45.466;11.066;2022-10-31T05:49:07;20.95;;;8.13;;
23346;SDS011;36852;45.466;11.066;2022-10-31T05:51:45;23.73;;;9.28;;
23346;SDS011;36852;45.466;11.066;2022-10-31T05:54:13;19.15;;;8.23;;
23346;SDS011;36852;45.466;11.066;2022-10-31T05:56:43;23.07;;;8.38;;
23346;SDS011;36852;45.466;11.066;2022-10-31T05:59:11;26.20;;;10.53;;
23346;SDS011;36852;45.466;11.066;2022-10-31T06:01:39;21.35;;;10.18;;
23346;SDS011;36852;45.466;11.066;2022-10-31T06:04:09;23.00;;;9.25;;
23346;SDS011;36852;45.466;11.066;2022-10-31T06:06:37;28.15;;;9.20;;
23346;SDS011;36852;45.466;11.066;2022-10-31T06:09:06;14.18;;;8.68;;
23346;SDS011;36852;45.466;11.066;2022-10-31T06:11:34;25.25;;;8.75;;
23346;SDS011;36852;45.466;11.066;2022-10-31T06:14:04;25.02;;;8.95;;
23346;SDS011;36852;45.466;11.066;2022-10-31T06:16:40;19.30;;;8.20;;
23346;SDS011;36852;45.466;11.066;2022-10-31T06:19:26;18.42;;;7.92;;
23346;SDS011;36852;45.466;11.066;2022-10-31T06:21:55;17.23;;;8.05;;
23346;SDS011;36852;45.466;11.066;2022-10-31T06:24:22;25.80;;;8.53;;
23346;SDS011;36852;45.466;11.066;2022-10-31T06:26:55;24.20;;;8.70;;
23346;SDS011;36852;45.466;11.066;2022-10-31T06:29:23;28.10;;;8.25;;
23346;SDS011;36852;45.466;11.066;2022-10-31T06:31:56;23.22;;;8.33;;
23346;SDS011;36852;45.466;11.066;2022-10-31T06:34:24;25.45;;;8.13;;
23346;SDS011;36852;45.466;11.066;2022-10-31T06:36:52;17.05;;;7.53;;
23346;SDS011;36852;45.466;11.066;2022-10-31T06:39:22;20.57;;;8.58;;
23346;SDS011;36852;45.466;11.066;2022-10-31T06:41:50;18.48;;;8.38;;
23346;SDS011;36852;45.466;11.066;2022-10-31T06:44:19;20.92;;;8.80;;
23346;SDS011;36852;45.466;11.066;2022-10-31T06:47:01;22.35;;;8.80;;
23346;SDS011;36852;45.466;11.066;2022-10-31T06:49:39;23.80;;;8.08;;
23346;SDS011;36852;45.466;11.066;2022-10-31T06:52:08;21.65;;;9.65;;
23346;SDS011;36852;45.466;11.066;2022-10-31T06:54:36;23.95;;;8.55;;
23346;SDS011;36852;45.466;11.066;2022-10-31T06:57:04;24.52;;;8.45;;
23346;SDS011;36852;45.466;11.066;2022-10-31T06:59:32;25.95;;;8.88;;
23346;SDS011;36852;45.466;11.066;2022-10-31T07:02:14;23.38;;;9.20;;
23346;SDS011;36852;45.466;11.066;2022-10-31T07:04:47;24.18;;;9.20;;
23346;SDS011;36852;45.466;11.066;2022-10-31T07:07:16;22.62;;;9.68;;
23346;SDS011;36852;45.466;11.066;2022-10-31T07:09:45;23.32;;;8.73;;
23346;SDS011;36852;45.466;11.066;2022-10-31T07:12:15;27.05;;;9.00;;
23346;SDS011;36852;45.466;11.066;2022-10-31T07:14:44;26.30;;;11.30;;
23346;SDS011;36852;45.466;11.066;2022-10-31T07:17:12;26.30;;;11.00;;
23346;SDS011;36852;45.466;11.066;2022-10-31T07:19:42;21.52;;;10.03;;
23346;SDS011;36852;45.466;11.066;2022-10-31T07:22:11;21.17;;;10.20;;
23346;SDS011;36852;45.466;11.066;2022-10-31T07:24:39;27.22;;;10.60;;
23346;SDS011;36852;45.466;11.066;2022-10-31T07:27:25;69.42;;;31.42;;
23346;SDS011;36852;45.466;11.066;2022-10-31T07:29:54;25.10;;;13.35;;
23346;SDS011;36852;45.466;11.066;2022-10-31T07:32:22;28.42;;;12.60;;
23346;SDS011;36852;45.466;11.066;2022-10-31T07:35:00;32.23;;;12.07;;
23346;SDS011;36852;45.466;11.066;2022-10-31T07:37:29;25.60;;;12.47;;
23346;SDS011;36852;45.466;11.066;2022-10-31T07:39:58;24.30;;;11.85;;
23346;SDS011;36852;45.466;11.066;2022-10-31T07:42:28;30.75;;;12.70;;
23346;SDS011;36852;45.466;11.066;2022-10-31T07:44:56;25.72;;;12.80;;
23346;SDS011;36852;45.466;11.066;2022-10-31T07:47:49;27.45;;;12.60;;
23346;SDS011;36852;45.466;11.066;2022-10-31T07:50:36;29.15;;;11.48;;
23346;SDS011;36852;45.466;11.066;2022-10-31T07:53:20;26.12;;;11.80;;
23346;SDS011;36852;45.466;11.066;2022-10-31T07:55:56;26.23;;;12.35;;
23346;SDS011;36852;45.466;11.066;2022-10-31T07:58:25;27.70;;;12.13;;
23346;SDS011;36852;45.466;11.066;2022-10-31T08:00:53;27.32;;;12.30;;
23346;SDS011;36852;45.466;11.066;2022-10-31T08:03:23;28.50;;;12.55;;
23346;SDS011;36852;45.466;11.066;2022-10-31T08:06:11;27.82;;;13.93;;
23346;SDS011;36852;45.466;11.066;2022-10-31T08:08:48;25.15;;;13.55;;
23346;SDS011;36852;45.466;11.066;2022-10-31T08:11:16;28.12;;;11.18;;
23346;SDS011;36852;45.466;11.066;2022-10-31T08:13:46;26.77;;;10.88;;
23346;SDS011;36852;45.466;11.066;2022-10-31T08:16:15;29.00;;;12.05;;
23346;SDS011;36852;45.466;11.066;2022-10-31T08:18:44;24.75;;;10.40;;
23346;SDS011;36852;45.466;11.066;2022-10-31T08:21:13;27.52;;;11.12;;
23346;SDS011;36852;45.466;11.066;2022-10-31T08:23:43;25.50;;;10.23;;
23346;SDS011;36852;45.466;11.066;2022-10-31T08:26:13;26.10;;;10.85;;
23346;SDS011;36852;45.466;11.066;2022-10-31T08:28:41;23.00;;;11.48;;
23346;SDS011;36852;45.466;11.066;2022-10-31T08:31:12;22.32;;;9.75;;
23346;SDS011;36852;45.466;11.066;2022-10-31T08:33:42;24.40;;;10.10;;
23346;SDS011;36852;45.466;11.066;2022-10-31T08:36:15;24.85;;;11.18;;
23346;SDS011;36852;45.466;11.066;2022-10-31T08:38:50;28.75;;;12.33;;
23346;SDS011;36852;45.466;11.066;2022-10-31T08:41:20;30.65;;;13.45;;
23346;SDS011;36852;45.466;11.066;2022-10-31T08:43:48;36.98;;;13.28;;
23346;SDS011;36852;45.466;11.066;2022-10-31T08:46:15;36.53;;;13.35;;
23346;SDS011;36852;45.466;11.066;2022-10-31T08:48:44;33.65;;;13.22;;
23346;SDS011;36852;45.466;11.066;2022-10-31T08:51:18;36.23;;;13.72;;
23346;SDS011;36852;45.466;11.066;2022-10-31T08:53:48;35.70;;;15.28;;
23346;SDS011;36852;45.466;11.066;2022-10-31T08:56:36;32.48;;;14.58;;
23346;SDS011;36852;45.466;11.066;2022-10-31T08:59:06;31.85;;;13.85;;
23346;SDS011;36852;45.466;11.066;2022-10-31T09:01:38;38.30;;;14.10;;
23346;SDS011;36852;45.466;11.066;2022-10-31T09:04:06;35.45;;;15.72;;
23346;SDS011;36852;45.466;11.066;2022-10-31T09:06:35;32.73;;;15.78;;
23346;SDS011;36852;45.466;11.066;2022-10-31T09:09:04;40.83;;;16.55;;
23346;SDS011;36852;45.466;11.066;2022-10-31T09:11:32;28.67;;;15.55;;
23346;SDS011;36852;45.466;11.066;2022-10-31T09:14:11;36.77;;;17.40;;
23346;SDS011;36852;45.466;11.066;2022-10-31T09:16:40;45.03;;;16.48;;
23346;SDS011;36852;45.466;11.066;2022-10-31T09:19:10;41.83;;;16.27;;
23346;SDS011;36852;45.466;11.066;2022-10-31T09:21:38;36.48;;;16.93;;
23346;SDS011;36852;45.466;11.066;2022-10-31T09:24:06;41.02;;;18.27;;
23346;SDS011;36852;45.466;11.066;2022-10-31T09:26:34;34.38;;;18.23;;
23346;SDS011;36852;45.466;11.066;2022-10-31T09:29:16;39.23;;;18.62;;
23346;SDS011;36852;45.466;11.066;2022-10-31T09:31:46;46.23;;;21.27;;
23346;SDS011;36852;45.466;11.066;2022-10-31T09:34:22;43.80;;;19.00;;
23346;SDS011;36852;45.466;11.066;2022-10-31T09:36:52;40.52;;;18.07;;
23346;SDS011;36852;45.466;11.066;2022-10-31T09:39:21;38.75;;;17.15;;
23346;SDS011;36852;45.466;11.066;2022-10-31T09:44:52;32.35;;;16.32;;
23346;SDS011;36852;45.466;11.066;2022-10-31T09:50:49;39.90;;;15.20;;
23346;SDS011;36852;45.466;11.066;2022-10-31T09:53:41;32.17;;;14.40;;
23346;SDS011;36852;45.466;11.066;2022-10-31T09:56:20;34.05;;;14.90;;
23346;SDS011;36852;45.466;11.066;2022-10-31T09:58:53;30.82;;;15.28;;
23346;SDS011;36852;45.466;11.066;2022-10-31T10:01:25;38.58;;;18.25;;
23346;SDS011;36852;45.466;11.066;2022-10-31T10:10:25;41.13;;;20.97;;
23346;SDS011;36852;45.466;11.066;2022-10-31T10:15:52;49.80;;;22.67;;
23346;SDS011;36852;45.466;11.066;2022-10-31T10:26:55;42.43;;;23.35;;
23346;SDS011;36852;45.466;11.066;2022-10-31T10:29:34;47.25;;;26.65;;
23346;SDS011;36852;45.466;11.066;2022-10-31T10:32:12;54.67;;;27.85;;
23346;SDS011;36852;45.466;11.066;2022-10-31T10:34:56;41.48;;;25.85;;
23346;SDS011;36852;45.466;11.066;2022-10-31T10:37:30;46.83;;;27.55;;
23346;SDS011;36852;45.466;11.066;2022-10-31T10:40:07;52.33;;;28.20;;
23346;SDS011;36852;45.466;11.066;2022-10-31T10:42:38;52.38;;;28.05;;
23346;SDS011;36852;45.466;11.066;2022-10-31T10:45:27;49.30;;;27.15;;
23346;SDS011;36852;45.466;11.066;2022-10-31T10:48:27;42.67;;;26.73;;
23346;SDS011;36852;45.466;11.066;2022-10-31T10:50:53;50.55;;;26.33;;
23346;SDS011;36852;45.466;11.066;2022-10-31T10:56:12;51.30;;;29.45;;
23346;SDS011;36852;45.466;11.066;2022-10-31T10:58:54;47.75;;;27.02;;
23346;SDS011;36852;45.466;11.066;2022-10-31T11:01:24;50.43;;;26.65;;
23346;SDS011;36852;45.466;11.066;2022-10-31T11:03:52;40.90;;;23.50;;
23346;SDS011;36852;45.466;11.066;2022-10-31T11:06:23;51.53;;;23.57;;
23346;SDS011;36852;45.466;11.066;2022-10-31T11:08:54;52.70;;;27.58;;
23346;SDS011;36852;45.466;11.066;2022-10-31T11:14:04;46.02;;;27.25;;
23346;SDS011;36852;45.466;11.066;2022-10-31T11:16:37;50.48;;;27.90;;
23346;SDS011;36852;45.466;11.066;2022-10-31T11:19:16;49.00;;;28.92;;
23346;SDS011;36852;45.466;11.066;2022-10-31T11:21:50;48.48;;;28.52;;
23346;SDS011;36852;45.466;11.066;2022-10-31T11:24:23;50.30;;;28.10;;
23346;SDS011;36852;45.466;11.066;2022-10-31T11:27:09;46.83;;;27.58;;
23346;SDS011;36852;45.466;11.066;2022-10-31T11:29:37;57.58;;;28.32;;
23346;SDS011;36852;45.466;11.066;2022-10-31T11:32:05;48.80;;;28.90;;
23346;SDS011;36852;45.466;11.066;2022-10-31T11:34:37;43.52;;;27.67;;
23346;SDS011;36852;45.466;11.066;2022-10-31T11:37:15;49.00;;;27.55;;
23346;SDS011;36852;45.466;11.066;2022-10-31T11:39:46;46.88;;;27.15;;
23346;SDS011;36852;45.466;11.066;2022-10-31T11:42:22;45.25;;;27.73;;
23346;SDS011;36852;45.466;11.066;2022-10-31T11:44:53;44.87;;;24.87;;
23346;SDS011;36852;45.466;11.066;2022-10-31T11:47:29;43.42;;;26.17;;
23346;SDS011;36852;45.466;11.066;2022-10-31T11:49:56;53.28;;;25.75;;
23346;SDS011;36852;45.466;11.066;2022-10-31T11:52:25;44.55;;;26.07;;
23346;SDS011;36852;45.466;11.066;2022-10-31T11:59:58;49.75;;;26.42;;
23346;SDS011;36852;45.466;11.066;2022-10-31T12:02:32;43.02;;;25.50;;
23346;SDS011;36852;45.466;11.066;2022-10-31T12:05:08;42.20;;;25.45;;
23346;SDS011;36852;45.466;11.066;2022-10-31T12:07:39;48.48;;;25.68;;
23346;SDS011;36852;45.466;11.066;2022-10-31T12:10:10;49.45;;;25.40;;
23346;SDS011;36852;45.466;11.066;2022-10-31T12:29:14;49.23;;;25.32;;
23346;SDS011;36852;45.466;11.066;2022-10-31T12:40:36;44.10;;;25.00;;
23346;SDS011;36852;45.466;11.066;2022-10-31T12:43:16;42.98;;;24.85;;
23346;SDS011;36852;45.466;11.066;2022-10-31T12:45:55;42.05;;;25.72;;
23346;SDS011;36852;45.466;11.066;2022-10-31T12:54:04;35.63;;;20.57;;
23346;SDS011;36852;45.466;11.066;2022-10-31T12:59:52;39.15;;;24.12;;
23346;SDS011;36852;45.466;11.066;2022-10-31T13:07:49;41.45;;;24.75;;
23346;SDS011;36852;45.466;11.066;2022-10-31T13:12:53;51.13;;;28.83;;
23346;SDS011;36852;45.466;11.066;2022-10-31T13:15:25;44.23;;;25.80;;
23346;SDS011;36852;45.466;11.066;2022-10-31T13:17:55;45.15;;;28.07;;
23346;SDS011;36852;45.466;11.066;2022-10-31T13:25:53;45.70;;;26.27;;
23346;SDS011;36852;45.466;11.066;2022-10-31T13:30:59;42.73;;;26.55;;
23346;SDS011;36852;45.466;11.066;2022-10-31T13:33:35;41.37;;;26.00;;
23346;SDS011;36852;45.466;11.066;2022-10-31T13:39:06;40.75;;;25.90;;
23346;SDS011;36852;45.466;11.066;2022-10-31T13:44:20;42.33;;;25.72;;
23346;SDS011;36852;45.466;11.066;2022-10-31T13:46:53;41.05;;;22.73;;
23346;SDS011;36852;45.466;11.066;2022-10-31T13:54:48;36.33;;;23.57;;
23346;SDS011;36852;45.466;11.066;2022-10-31T13:57:27;36.33;;;22.75;;
23346;SDS011;36852;45.466;11.066;2022-10-31T14:00:04;40.55;;;22.62;;
23346;SDS011;36852;45.466;11.066;2022-10-31T14:02:33;37.45;;;22.70;;
23346;SDS011;36852;45.466;11.066;2022-10-31T14:05:04;34.18;;;22.95;;
23346;SDS011;36852;45.466;11.066;2022-10-31T14:07:41;32.85;;;22.10;;
23346;SDS011;36852;45.466;11.066;2022-10-31T14:10:27;30.92;;;22.77;;
23346;SDS011;36852;45.466;11.066;2022-10-31T14:15:54;31.85;;;22.22;;
23346;SDS011;36852;45.466;11.066;2022-10-31T14:18:29;35.40;;;22.13;;
23346;SDS011;36852;45.466;11.066;2022-10-31T14:21:01;32.08;;;21.40;;
23346;SDS011;36852;45.466;11.066;2022-10-31T14:23:45;26.50;;;20.50;;
23346;SDS011;36852;45.466;11.066;2022-10-31T14:28:56;40.73;;;22.65;;
23346;SDS011;36852;45.466;11.066;2022-10-31T14:31:45;32.50;;;20.88;;
23346;SDS011;36852;45.466;11.066;2022-10-31T14:34:34;24.87;;;19.42;;
23346;SDS011;36852;45.466;11.066;2022-10-31T14:37:17;30.40;;;21.73;;
23346;SDS011;36852;45.466;11.066;2022-10-31T14:40:07;29.75;;;21.05;;
23346;SDS011;36852;45.466;11.066;2022-10-31T14:51:19;34.40;;;20.17;;
23346;SDS011;36852;45.466;11.066;2022-10-31T14:53:54;28.92;;;19.75;;
23346;SDS011;36852;45.466;11.066;2022-10-31T14:56:27;27.40;;;19.12;;
23346;SDS011;36852;45.466;11.066;2022-10-31T14:58:57;28.27;;;19.17;;
23346;SDS011;36852;45.466;11.066;2022-10-31T15:01:29;32.83;;;19.67;;
23346;SDS011;36852;45.466;11.066;2022-10-31T15:06:48;32.10;;;19.05;;
23346;SDS011;36852;45.466;11.066;2022-10-31T15:11:53;29.00;;;21.40;;
23346;SDS011;36852;45.466;11.066;2022-10-31T15:14:25;37.95;;;20.97;;
23346;SDS011;36852;45.466;11.066;2022-10-31T15:16:55;33.87;;;21.70;;
23346;SDS011;36852;45.466;11.066;2022-10-31T15:19:26;32.13;;;21.65;;
23346;SDS011;36852;45.466;11.066;2022-10-31T15:21:56;28.80;;;19.70;;
23346;SDS011;36852;45.466;11.066;2022-10-31T15:24:28;35.63;;;21.50;;
23346;SDS011;36852;45.466;11.066;2022-10-31T15:27:00;32.65;;;21.97;;
23346;SDS011;36852;45.466;11.066;2022-10-31T15:29:31;29.98;;;20.43;;
23346;SDS011;36852;45.466;11.066;2022-10-31T15:32:00;31.25;;;20.70;;
23346;SDS011;36852;45.466;11.066;2022-10-31T15:37:15;39.03;;;19.10;;
23346;SDS011;36852;45.466;11.066;2022-10-31T15:39:44;31.07;;;20.25;;
23346;SDS011;36852;45.466;11.066;2022-10-31T15:45:00;40.03;;;26.20;;
23346;SDS011;36852;45.466;11.066;2022-10-31T15:47:30;35.45;;;22.07;;
23346;SDS011;36852;45.466;11.066;2022-10-31T15:49:59;38.13;;;22.10;;
23346;SDS011;36852;45.466;11.066;2022-10-31T15:57:55;38.60;;;22.93;;
23346;SDS011;36852;45.466;11.066;2022-10-31T16:00:25;38.28;;;22.65;;
23346;SDS011;36852;45.466;11.066;2022-10-31T16:13:36;40.17;;;21.77;;
23346;SDS011;36852;45.466;11.066;2022-10-31T16:16:16;38.13;;;21.57;;
23346;SDS011;36852;45.466;11.066;2022-10-31T16:18:44;35.73;;;21.95;;
23346;SDS011;36852;45.466;11.066;2022-10-31T16:21:12;34.03;;;21.57;;
23346;SDS011;36852;45.466;11.066;2022-10-31T16:23:53;34.73;;;22.10;;
23346;SDS011;36852;45.466;11.066;2022-10-31T16:28:51;31.65;;;21.02;;
23346;SDS011;36852;45.466;11.066;2022-10-31T16:31:29;36.55;;;22.10;;
23346;SDS011;36852;45.466;11.066;2022-10-31T16:34:05;35.20;;;24.05;;
23346;SDS011;36852;45.466;11.066;2022-10-31T16:36:45;43.13;;;23.20;;
23346;SDS011;36852;45.466;11.066;2022-10-31T16:39:13;42.80;;;25.95;;
23346;SDS011;36852;45.466;11.066;2022-10-31T16:41:42;47.78;;;26.35;;
23346;SDS011;36852;45.466;11.066;2022-10-31T16:44:16;43.33;;;25.75;;
23346;SDS011;36852;45.466;11.066;2022-10-31T16:46:46;40.30;;;24.07;;
23346;SDS011;36852;45.466;11.066;2022-10-31T16:49:13;49.35;;;25.32;;
23346;SDS011;36852;45.466;11.066;2022-10-31T16:51:47;45.70;;;29.87;;
23346;SDS011;36852;45.466;11.066;2022-10-31T16:54:31;41.80;;;27.17;;
23346;SDS011;36852;45.466;11.066;2022-10-31T16:56:59;45.73;;;24.65;;
23346;SDS011;36852;45.466;11.066;2022-10-31T16:59:29;46.80;;;25.92;;
23346;SDS011;36852;45.466;11.066;2022-10-31T17:01:59;41.42;;;25.35;;
23346;SDS011;36852;45.466;11.066;2022-10-31T17:04:34;43.80;;;26.65;;
23346;SDS011;36852;45.466;11.066;2022-10-31T17:07:02;49.20;;;26.20;;
23346;SDS011;36852;45.466;11.066;2022-10-31T17:09:30;41.98;;;25.43;;
23346;SDS011;36852;45.466;11.066;2022-10-31T17:11:58;41.15;;;25.80;;
23346;SDS011;36852;45.466;11.066;2022-10-31T17:14:26;41.28;;;25.95;;
23346;SDS011;36852;45.466;11.066;2022-10-31T17:16:54;49.13;;;26.37;;
23346;SDS011;36852;45.466;11.066;2022-10-31T17:19:25;53.90;;;24.77;;
23346;SDS011;36852;45.466;11.066;2022-10-31T17:21:52;42.88;;;25.17;;
23346;SDS011;36852;45.466;11.066;2022-10-31T17:24:23;41.48;;;25.90;;
23346;SDS011;36852;45.466;11.066;2022-10-31T17:26:51;41.13;;;24.27;;
23346;SDS011;36852;45.466;11.066;2022-10-31T17:29:20;52.20;;;29.75;;
23346;SDS011;36852;45.466;11.066;2022-10-31T17:31:49;44.10;;;26.95;;
23346;SDS011;36852;45.466;11.066;2022-10-31T17:34:17;49.00;;;29.35;;
23346;SDS011;36852;45.466;11.066;2022-10-31T17:36:49;45.80;;;24.80;;
23346;SDS011;36852;45.466;11.066;2022-10-31T17:39:24;53.85;;;28.70;;
23346;SDS011;36852;45.466;11.066;2022-10-31T17:41:53;56.90;;;31.55;;
23346;SDS011;36852;45.466;11.066;2022-10-31T17:44:22;68.20;;;35.17;;
23346;SDS011;36852;45.466;11.066;2022-10-31T17:46:50;71.28;;;35.90;;
23346;SDS011;36852;45.466;11.066;2022-10-31T17:49:20;68.95;;;36.42;;